sensor_id;sensor_type;location;lat;lon;timestamp;P1;durP1;ratioP1;P2;durP2;ratioP2
1925;SDS011;964;42.606;23.588;2023-04-25T00:01:45;2.50;;;2.30;;
1925;SDS011;964;42.606;23.588;2023-04-25T00:04:12;2.50;;;2.30;;
1925;SDS011;964;42.606;23.588;2023-04-25T00:06:40;4.40;;;2.70;;
1925;SDS011;964;42.606;23.588;2023-04-25T00:09:07;3.40;;;3.10;;
1925;SDS011;964;42.606;23.588;2023-04-25T00:11:35;3.67;;;3.37;;
1925;SDS011;964;42.606;23.588;2023-04-25T00:14:01;3.73;;;3.10;;
1925;SDS011;964;42.606;23.588;2023-04-25T00:16:28;4.23;;;3.33;;
1925;SDS011;964;42.606;23.588;2023-04-25T00:18:58;4.53;;;3.33;;
1925;SDS011;964;42.606;23.588;2023-04-25T00:21:25;4.60;;;3.63;;
1925;SDS011;964;42.606;23.588;2023-04-25T00:23:53;3.93;;;3.57;;
1925;SDS011;964;42.606;23.588;2023-04-25T00:26:20;3.90;;;3.23;;
1925;SDS011;964;42.606;23.588;2023-04-25T00:28:47;5.30;;;3.70;;
1925;SDS011;964;42.606;23.588;2023-04-25T00:31:14;6.03;;;3.47;;
1925;SDS011;964;42.606;23.588;2023-04-25T00:33:41;4.13;;;3.83;;
1925;SDS011;964;42.606;23.588;2023-04-25T00:36:07;5.73;;;3.93;;
1925;SDS011;964;42.606;23.588;2023-04-25T00:38:34;7.63;;;4.63;;
1925;SDS011;964;42.606;23.588;2023-04-25T00:41:05;4.90;;;3.67;;
1925;SDS011;964;42.606;23.588;2023-04-25T00:43:33;5.20;;;4.40;;
1925;SDS011;964;42.606;23.588;2023-04-25T00:46:02;7.13;;;4.37;;
1925;SDS011;964;42.606;23.588;2023-04-25T00:48:29;5.00;;;4.50;;
1925;SDS011;964;42.606;23.588;2023-04-25T00:50:56;7.30;;;5.13;;
1925;SDS011;964;42.606;23.588;2023-04-25T00:53:26;6.70;;;5.43;;
1925;SDS011;964;42.606;23.588;2023-04-25T00:55:53;6.27;;;4.70;;
1925;SDS011;964;42.606;23.588;2023-04-25T00:58:22;6.20;;;5.60;;
1925;SDS011;964;42.606;23.588;2023-04-25T01:00:49;6.63;;;5.70;;
1925;SDS011;964;42.606;23.588;2023-04-25T01:03:17;7.70;;;5.47;;
1925;SDS011;964;42.606;23.588;2023-04-25T01:05:45;7.67;;;4.90;;
1925;SDS011;964;42.606;23.588;2023-04-25T01:08:12;3.90;;;3.50;;
1925;SDS011;964;42.606;23.588;2023-04-25T01:10:40;4.70;;;2.70;;
1925;SDS011;964;42.606;23.588;2023-04-25T01:13:07;4.03;;;3.40;;
1925;SDS011;964;42.606;23.588;2023-04-25T01:15:35;3.63;;;2.53;;
1925;SDS011;964;42.606;23.588;2023-04-25T01:18:02;3.40;;;2.93;;
1925;SDS011;964;42.606;23.588;2023-04-25T01:20:29;4.00;;;2.80;;
1925;SDS011;964;42.606;23.588;2023-04-25T01:23:00;5.47;;;3.27;;
1925;SDS011;964;42.606;23.588;2023-04-25T01:25:27;3.50;;;3.20;;
1925;SDS011;964;42.606;23.588;2023-04-25T01:27:55;5.07;;;2.80;;
1925;SDS011;964;42.606;23.588;2023-04-25T01:30:22;3.03;;;2.73;;
1925;SDS011;964;42.606;23.588;2023-04-25T01:32:49;3.90;;;3.50;;
1925;SDS011;964;42.606;23.588;2023-04-25T01:35:17;2.83;;;2.63;;
1925;SDS011;964;42.606;23.588;2023-04-25T01:37:44;3.33;;;2.93;;
1925;SDS011;964;42.606;23.588;2023-04-25T01:40:13;3.40;;;3.00;;
1925;SDS011;964;42.606;23.588;2023-04-25T01:42:40;5.00;;;3.50;;
1925;SDS011;964;42.606;23.588;2023-04-25T01:45:09;3.20;;;2.73;;
1925;SDS011;964;42.606;23.588;2023-04-25T01:47:36;4.13;;;3.10;;
1925;SDS011;964;42.606;23.588;2023-04-25T01:50:05;3.80;;;3.40;;
1925;SDS011;964;42.606;23.588;2023-04-25T01:52:33;3.63;;;3.33;;
1925;SDS011;964;42.606;23.588;2023-04-25T01:55:01;4.50;;;3.80;;
1925;SDS011;964;42.606;23.588;2023-04-25T01:57:30;5.97;;;4.40;;
1925;SDS011;964;42.606;23.588;2023-04-25T01:59:58;5.13;;;4.20;;
1925;SDS011;964;42.606;23.588;2023-04-25T02:02:26;4.57;;;4.17;;
1925;SDS011;964;42.606;23.588;2023-04-25T02:04:53;5.40;;;4.60;;
1925;SDS011;964;42.606;23.588;2023-04-25T02:07:21;5.80;;;4.43;;
1925;SDS011;964;42.606;23.588;2023-04-25T02:09:48;8.70;;;5.50;;
1925;SDS011;964;42.606;23.588;2023-04-25T02:12:15;5.13;;;4.40;;
1925;SDS011;964;42.606;23.588;2023-04-25T02:14:43;5.97;;;4.80;;
1925;SDS011;964;42.606;23.588;2023-04-25T02:17:10;4.90;;;4.17;;
1925;SDS011;964;42.606;23.588;2023-04-25T02:19:37;6.00;;;5.27;;
1925;SDS011;964;42.606;23.588;2023-04-25T02:22:04;7.10;;;5.17;;
1925;SDS011;964;42.606;23.588;2023-04-25T02:24:31;5.50;;;4.70;;
1925;SDS011;964;42.606;23.588;2023-04-25T02:26:58;7.80;;;5.00;;
1925;SDS011;964;42.606;23.588;2023-04-25T02:29:26;6.57;;;5.27;;
1925;SDS011;964;42.606;23.588;2023-04-25T02:31:54;6.83;;;4.70;;
1925;SDS011;964;42.606;23.588;2023-04-25T02:34:20;5.33;;;4.80;;
1925;SDS011;964;42.606;23.588;2023-04-25T02:36:48;6.63;;;5.17;;
1925;SDS011;964;42.606;23.588;2023-04-25T02:39:14;7.43;;;5.27;;
1925;SDS011;964;42.606;23.588;2023-04-25T02:41:41;5.27;;;4.77;;
1925;SDS011;964;42.606;23.588;2023-04-25T02:44:08;6.37;;;4.63;;
1925;SDS011;964;42.606;23.588;2023-04-25T02:46:34;5.83;;;5.17;;
1925;SDS011;964;42.606;23.588;2023-04-25T02:49:02;5.50;;;5.00;;
1925;SDS011;964;42.606;23.588;2023-04-25T02:51:30;8.20;;;6.37;;
1925;SDS011;964;42.606;23.588;2023-04-25T02:53:57;10.30;;;8.00;;
1925;SDS011;964;42.606;23.588;2023-04-25T02:56:24;8.20;;;6.57;;
1925;SDS011;964;42.606;23.588;2023-04-25T02:58:51;11.00;;;7.80;;
1925;SDS011;964;42.606;23.588;2023-04-25T03:01:18;9.57;;;7.50;;
1925;SDS011;964;42.606;23.588;2023-04-25T03:03:45;10.03;;;7.50;;
1925;SDS011;964;42.606;23.588;2023-04-25T03:06:13;17.10;;;8.97;;
1925;SDS011;964;42.606;23.588;2023-04-25T03:08:40;11.10;;;7.67;;
1925;SDS011;964;42.606;23.588;2023-04-25T03:11:07;16.13;;;8.87;;
1925;SDS011;964;42.606;23.588;2023-04-25T03:13:33;13.20;;;9.03;;
1925;SDS011;964;42.606;23.588;2023-04-25T03:16:00;15.53;;;11.00;;
1925;SDS011;964;42.606;23.588;2023-04-25T03:18:27;15.20;;;9.77;;
1925;SDS011;964;42.606;23.588;2023-04-25T03:20:53;17.20;;;10.90;;
1925;SDS011;964;42.606;23.588;2023-04-25T03:23:21;16.80;;;11.13;;
1925;SDS011;964;42.606;23.588;2023-04-25T03:25:48;17.23;;;12.00;;
1925;SDS011;964;42.606;23.588;2023-04-25T03:28:15;18.10;;;11.80;;
1925;SDS011;964;42.606;23.588;2023-04-25T03:30:41;18.70;;;12.10;;
1925;SDS011;964;42.606;23.588;2023-04-25T03:33:08;19.40;;;12.80;;
1925;SDS011;964;42.606;23.588;2023-04-25T03:35:35;24.10;;;15.47;;
1925;SDS011;964;42.606;23.588;2023-04-25T03:38:01;28.70;;;15.83;;
1925;SDS011;964;42.606;23.588;2023-04-25T03:40:29;22.93;;;12.83;;
1925;SDS011;964;42.606;23.588;2023-04-25T03:42:56;24.07;;;14.17;;
1925;SDS011;964;42.606;23.588;2023-04-25T03:45:23;33.70;;;17.07;;
1925;SDS011;964;42.606;23.588;2023-04-25T03:47:49;22.80;;;13.03;;
1925;SDS011;964;42.606;23.588;2023-04-25T03:50:16;16.90;;;11.97;;
1925;SDS011;964;42.606;23.588;2023-04-25T03:52:43;21.17;;;12.30;;
1925;SDS011;964;42.606;23.588;2023-04-25T03:55:09;21.07;;;13.40;;
1925;SDS011;964;42.606;23.588;2023-04-25T03:57:38;18.93;;;12.07;;
1925;SDS011;964;42.606;23.588;2023-04-25T04:00:05;23.33;;;13.10;;
1925;SDS011;964;42.606;23.588;2023-04-25T04:02:32;17.87;;;12.40;;
1925;SDS011;964;42.606;23.588;2023-04-25T04:05:01;16.20;;;11.10;;
1925;SDS011;964;42.606;23.588;2023-04-25T04:07:43;15.60;;;10.77;;
1925;SDS011;964;42.606;23.588;2023-04-25T04:10:15;14.10;;;10.37;;
1925;SDS011;964;42.606;23.588;2023-04-25T04:12:43;15.17;;;9.70;;
1925;SDS011;964;42.606;23.588;2023-04-25T04:15:10;15.60;;;9.50;;
1925;SDS011;964;42.606;23.588;2023-04-25T04:17:37;14.30;;;9.43;;
1925;SDS011;964;42.606;23.588;2023-04-25T04:20:04;11.80;;;9.07;;
1925;SDS011;964;42.606;23.588;2023-04-25T04:22:33;12.00;;;8.97;;
1925;SDS011;964;42.606;23.588;2023-04-25T04:24:59;12.70;;;8.50;;
1925;SDS011;964;42.606;23.588;2023-04-25T04:27:27;10.43;;;8.70;;
1925;SDS011;964;42.606;23.588;2023-04-25T04:29:55;11.90;;;8.90;;
1925;SDS011;964;42.606;23.588;2023-04-25T04:32:22;15.30;;;8.73;;
1925;SDS011;964;42.606;23.588;2023-04-25T04:34:50;11.80;;;9.80;;
1925;SDS011;964;42.606;23.588;2023-04-25T04:37:17;12.63;;;9.33;;
1925;SDS011;964;42.606;23.588;2023-04-25T04:39:43;10.33;;;8.47;;
1925;SDS011;964;42.606;23.588;2023-04-25T04:42:11;7.70;;;6.90;;
1925;SDS011;964;42.606;23.588;2023-04-25T04:44:37;21.13;;;15.33;;
1925;SDS011;964;42.606;23.588;2023-04-25T04:47:06;16.93;;;12.83;;
1925;SDS011;964;42.606;23.588;2023-04-25T04:49:33;40.37;;;25.73;;
1925;SDS011;964;42.606;23.588;2023-04-25T04:52:00;27.30;;;18.63;;
1925;SDS011;964;42.606;23.588;2023-04-25T04:54:26;16.10;;;11.30;;
1925;SDS011;964;42.606;23.588;2023-04-25T04:56:53;9.50;;;8.00;;
1925;SDS011;964;42.606;23.588;2023-04-25T04:59:20;14.20;;;9.43;;
1925;SDS011;964;42.606;23.588;2023-04-25T05:01:46;7.80;;;6.80;;
1925;SDS011;964;42.606;23.588;2023-04-25T05:04:15;28.20;;;21.20;;
1925;SDS011;964;42.606;23.588;2023-04-25T05:06:42;17.30;;;13.40;;
1925;SDS011;964;42.606;23.588;2023-04-25T05:09:09;25.27;;;16.40;;
1925;SDS011;964;42.606;23.588;2023-04-25T05:11:36;22.03;;;15.10;;
1925;SDS011;964;42.606;23.588;2023-04-25T05:14:02;14.50;;;10.70;;
1925;SDS011;964;42.606;23.588;2023-04-25T05:16:29;15.60;;;11.33;;
1925;SDS011;964;42.606;23.588;2023-04-25T05:18:55;14.20;;;10.23;;
1925;SDS011;964;42.606;23.588;2023-04-25T05:21:23;30.13;;;25.03;;
1925;SDS011;964;42.606;23.588;2023-04-25T05:23:50;24.77;;;19.40;;
1925;SDS011;964;42.606;23.588;2023-04-25T05:26:17;17.70;;;12.57;;
1925;SDS011;964;42.606;23.588;2023-04-25T05:28:43;19.07;;;13.07;;
1925;SDS011;964;42.606;23.588;2023-04-25T05:31:10;18.40;;;13.53;;
1925;SDS011;964;42.606;23.588;2023-04-25T05:33:37;18.27;;;12.43;;
1925;SDS011;964;42.606;23.588;2023-04-25T05:36:04;20.33;;;13.33;;
1925;SDS011;964;42.606;23.588;2023-04-25T05:38:33;76.67;;;52.10;;
1925;SDS011;964;42.606;23.588;2023-04-25T05:41:00;54.63;;;38.30;;
1925;SDS011;964;42.606;23.588;2023-04-25T05:43:27;37.53;;;23.80;;
1925;SDS011;964;42.606;23.588;2023-04-25T05:45:53;25.20;;;16.73;;
1925;SDS011;964;42.606;23.588;2023-04-25T05:48:20;24.67;;;15.03;;
1925;SDS011;964;42.606;23.588;2023-04-25T05:50:47;21.87;;;14.73;;
1925;SDS011;964;42.606;23.588;2023-04-25T05:53:14;22.23;;;14.03;;
1925;SDS011;964;42.606;23.588;2023-04-25T05:55:42;23.30;;;13.90;;
1925;SDS011;964;42.606;23.588;2023-04-25T05:58:08;19.80;;;12.70;;
1925;SDS011;964;42.606;23.588;2023-04-25T06:00:35;18.70;;;13.47;;
1925;SDS011;964;42.606;23.588;2023-04-25T06:03:02;13.70;;;11.20;;
1925;SDS011;964;42.606;23.588;2023-04-25T06:05:29;18.30;;;12.13;;
1925;SDS011;964;42.606;23.588;2023-04-25T06:07:56;17.17;;;11.17;;
1925;SDS011;964;42.606;23.588;2023-04-25T06:10:22;13.70;;;11.33;;
1925;SDS011;964;42.606;23.588;2023-04-25T06:12:50;12.90;;;10.17;;
1925;SDS011;964;42.606;23.588;2023-04-25T06:15:17;16.23;;;12.10;;
1925;SDS011;964;42.606;23.588;2023-04-25T06:17:44;13.37;;;10.30;;
1925;SDS011;964;42.606;23.588;2023-04-25T06:20:11;14.30;;;10.53;;
1925;SDS011;964;42.606;23.588;2023-04-25T06:22:38;13.17;;;10.60;;
1925;SDS011;964;42.606;23.588;2023-04-25T06:25:05;13.40;;;10.30;;
1925;SDS011;964;42.606;23.588;2023-04-25T06:27:32;11.80;;;9.97;;
1925;SDS011;964;42.606;23.588;2023-04-25T06:30:00;12.60;;;9.73;;
1925;SDS011;964;42.606;23.588;2023-04-25T06:32:27;12.67;;;10.73;;
1925;SDS011;964;42.606;23.588;2023-04-25T06:34:55;29.87;;;18.87;;
1925;SDS011;964;42.606;23.588;2023-04-25T06:37:23;40.70;;;24.33;;
1925;SDS011;964;42.606;23.588;2023-04-25T06:39:50;28.30;;;17.70;;
1925;SDS011;964;42.606;23.588;2023-04-25T06:42:17;15.50;;;10.93;;
1925;SDS011;964;42.606;23.588;2023-04-25T06:44:44;11.23;;;9.90;;
1925;SDS011;964;42.606;23.588;2023-04-25T06:47:12;12.93;;;9.73;;
1925;SDS011;964;42.606;23.588;2023-04-25T06:49:39;12.00;;;9.60;;
1925;SDS011;964;42.606;23.588;2023-04-25T06:52:06;10.70;;;9.13;;
1925;SDS011;964;42.606;23.588;2023-04-25T06:54:33;11.03;;;8.17;;
1925;SDS011;964;42.606;23.588;2023-04-25T06:57:00;9.00;;;7.30;;
1925;SDS011;964;42.606;23.588;2023-04-25T06:59:27;7.90;;;6.27;;
1925;SDS011;964;42.606;23.588;2023-04-25T07:01:54;7.03;;;6.00;;
1925;SDS011;964;42.606;23.588;2023-04-25T07:04:22;6.43;;;5.73;;
1925;SDS011;964;42.606;23.588;2023-04-25T07:06:49;5.70;;;5.20;;
1925;SDS011;964;42.606;23.588;2023-04-25T07:09:15;6.27;;;5.73;;
1925;SDS011;964;42.606;23.588;2023-04-25T07:11:42;9.47;;;5.77;;
1925;SDS011;964;42.606;23.588;2023-04-25T07:14:09;6.30;;;5.70;;
1925;SDS011;964;42.606;23.588;2023-04-25T07:16:35;7.33;;;5.53;;
1925;SDS011;964;42.606;23.588;2023-04-25T07:19:02;7.13;;;6.43;;
1925;SDS011;964;42.606;23.588;2023-04-25T07:21:30;6.70;;;5.90;;
1925;SDS011;964;42.606;23.588;2023-04-25T07:23:57;6.57;;;5.97;;
1925;SDS011;964;42.606;23.588;2023-04-25T07:26:24;7.00;;;6.30;;
1925;SDS011;964;42.606;23.588;2023-04-25T07:28:51;6.83;;;6.17;;
1925;SDS011;964;42.606;23.588;2023-04-25T07:31:18;8.43;;;6.37;;
1925;SDS011;964;42.606;23.588;2023-04-25T07:33:44;7.30;;;6.60;;
1925;SDS011;964;42.606;23.588;2023-04-25T07:36:11;7.90;;;6.30;;
1925;SDS011;964;42.606;23.588;2023-04-25T07:38:39;6.97;;;6.00;;
1925;SDS011;964;42.606;23.588;2023-04-25T07:41:06;6.80;;;6.17;;
1925;SDS011;964;42.606;23.588;2023-04-25T07:43:33;6.70;;;5.90;;
1925;SDS011;964;42.606;23.588;2023-04-25T07:45:59;6.17;;;5.53;;
1925;SDS011;964;42.606;23.588;2023-04-25T07:48:26;6.27;;;5.63;;
1925;SDS011;964;42.606;23.588;2023-04-25T07:50:52;9.33;;;6.10;;
1925;SDS011;964;42.606;23.588;2023-04-25T07:53:19;6.50;;;5.80;;
1925;SDS011;964;42.606;23.588;2023-04-25T07:55:47;7.97;;;6.30;;
1925;SDS011;964;42.606;23.588;2023-04-25T07:58:14;6.53;;;5.93;;
1925;SDS011;964;42.606;23.588;2023-04-25T08:00:46;7.03;;;6.33;;
1925;SDS011;964;42.606;23.588;2023-04-25T08:03:12;6.73;;;5.97;;
1925;SDS011;964;42.606;23.588;2023-04-25T08:05:39;6.40;;;5.47;;
1925;SDS011;964;42.606;23.588;2023-04-25T08:08:06;6.50;;;5.90;;
1925;SDS011;964;42.606;23.588;2023-04-25T08:10:32;9.27;;;7.83;;
1925;SDS011;964;42.606;23.588;2023-04-25T08:13:01;7.43;;;6.30;;
1925;SDS011;964;42.606;23.588;2023-04-25T08:15:28;6.73;;;6.13;;
1925;SDS011;964;42.606;23.588;2023-04-25T08:17:54;8.43;;;6.80;;
1925;SDS011;964;42.606;23.588;2023-04-25T08:20:21;7.50;;;6.77;;
1925;SDS011;964;42.606;23.588;2023-04-25T08:22:48;8.20;;;7.37;;
1925;SDS011;964;42.606;23.588;2023-04-25T08:25:14;8.10;;;7.27;;
1925;SDS011;964;42.606;23.588;2023-04-25T08:27:41;7.80;;;7.03;;
1925;SDS011;964;42.606;23.588;2023-04-25T08:30:09;9.13;;;7.77;;
1925;SDS011;964;42.606;23.588;2023-04-25T08:32:36;9.60;;;6.83;;
1925;SDS011;964;42.606;23.588;2023-04-25T08:35:04;7.07;;;6.13;;
1925;SDS011;964;42.606;23.588;2023-04-25T08:37:31;8.03;;;7.23;;
1925;SDS011;964;42.606;23.588;2023-04-25T08:39:58;7.83;;;6.17;;
1925;SDS011;964;42.606;23.588;2023-04-25T08:42:25;10.70;;;8.13;;
1925;SDS011;964;42.606;23.588;2023-04-25T08:44:53;9.17;;;7.07;;
1925;SDS011;964;42.606;23.588;2023-04-25T08:47:22;10.40;;;7.30;;
1925;SDS011;964;42.606;23.588;2023-04-25T08:49:51;6.60;;;5.97;;
1925;SDS011;964;42.606;23.588;2023-04-25T08:52:21;6.87;;;6.27;;
1925;SDS011;964;42.606;23.588;2023-04-25T08:54:49;7.83;;;5.67;;
1925;SDS011;964;42.606;23.588;2023-04-25T08:57:19;5.87;;;5.27;;
1925;SDS011;964;42.606;23.588;2023-04-25T08:59:47;5.43;;;4.93;;
1925;SDS011;964;42.606;23.588;2023-04-25T09:02:15;7.57;;;6.80;;
1925;SDS011;964;42.606;23.588;2023-04-25T09:04:44;6.50;;;5.90;;
1925;SDS011;964;42.606;23.588;2023-04-25T09:07:11;5.80;;;5.13;;
1925;SDS011;964;42.606;23.588;2023-04-25T09:09:40;4.77;;;4.37;;
1925;SDS011;964;42.606;23.588;2023-04-25T09:12:07;4.67;;;4.27;;
1925;SDS011;964;42.606;23.588;2023-04-25T09:14:34;4.73;;;4.20;;
1925;SDS011;964;42.606;23.588;2023-04-25T09:17:02;3.70;;;3.50;;
1925;SDS011;964;42.606;23.588;2023-04-25T09:19:31;4.37;;;3.97;;
1925;SDS011;964;42.606;23.588;2023-04-25T09:22:02;4.60;;;4.20;;
1925;SDS011;964;42.606;23.588;2023-04-25T09:24:30;8.43;;;4.00;;
1925;SDS011;964;42.606;23.588;2023-04-25T09:26:57;3.70;;;3.40;;
1925;SDS011;964;42.606;23.588;2023-04-25T09:29:28;4.63;;;4.20;;
1925;SDS011;964;42.606;23.588;2023-04-25T09:32:08;4.00;;;3.33;;
1925;SDS011;964;42.606;23.588;2023-04-25T09:34:41;5.27;;;3.20;;
1925;SDS011;964;42.606;23.588;2023-04-25T09:37:10;2.77;;;2.57;;
1925;SDS011;964;42.606;23.588;2023-04-25T09:39:37;2.77;;;2.57;;
1925;SDS011;964;42.606;23.588;2023-04-25T09:42:04;3.30;;;2.77;;
1925;SDS011;964;42.606;23.588;2023-04-25T09:44:32;4.33;;;2.97;;
1925;SDS011;964;42.606;23.588;2023-04-25T09:46:58;2.20;;;2.10;;
1925;SDS011;964;42.606;23.588;2023-04-25T09:49:25;2.40;;;2.20;;
1925;SDS011;964;42.606;23.588;2023-04-25T09:51:55;6.93;;;2.30;;
1925;SDS011;964;42.606;23.588;2023-04-25T09:54:24;3.10;;;2.90;;
1925;SDS011;964;42.606;23.588;2023-04-25T09:56:53;2.80;;;2.60;;
1925;SDS011;964;42.606;23.588;2023-04-25T09:59:20;4.07;;;2.77;;
1925;SDS011;964;42.606;23.588;2023-04-25T10:01:48;1.80;;;1.70;;
1925;SDS011;964;42.606;23.588;2023-04-25T10:04:17;2.30;;;2.10;;
1925;SDS011;964;42.606;23.588;2023-04-25T10:06:46;2.10;;;1.90;;
1925;SDS011;964;42.606;23.588;2023-04-25T10:09:15;2.57;;;2.30;;
1925;SDS011;964;42.606;23.588;2023-04-25T10:11:45;2.70;;;2.20;;
1925;SDS011;964;42.606;23.588;2023-04-25T10:14:13;3.83;;;2.17;;
1925;SDS011;964;42.606;23.588;2023-04-25T10:16:40;2.50;;;2.30;;
1925;SDS011;964;42.606;23.588;2023-04-25T10:19:08;3.63;;;2.20;;
1925;SDS011;964;42.606;23.588;2023-04-25T10:21:36;3.80;;;2.80;;
1925;SDS011;964;42.606;23.588;2023-04-25T10:24:06;2.90;;;2.57;;
1925;SDS011;964;42.606;23.588;2023-04-25T10:26:34;2.93;;;2.67;;
1925;SDS011;964;42.606;23.588;2023-04-25T10:29:02;2.30;;;2.10;;
1925;SDS011;964;42.606;23.588;2023-04-25T10:31:30;4.23;;;3.43;;
1925;SDS011;964;42.606;23.588;2023-04-25T10:33:57;3.03;;;2.37;;
1925;SDS011;964;42.606;23.588;2023-04-25T10:36:26;2.87;;;2.53;;
1925;SDS011;964;42.606;23.588;2023-04-25T10:38:58;2.80;;;2.50;;
1925;SDS011;964;42.606;23.588;2023-04-25T10:41:31;3.13;;;2.83;;
1925;SDS011;964;42.606;23.588;2023-04-25T10:44:14;2.80;;;2.60;;
1925;SDS011;964;42.606;23.588;2023-04-25T10:46:41;3.17;;;2.70;;
1925;SDS011;964;42.606;23.588;2023-04-25T10:49:10;3.03;;;2.83;;
1925;SDS011;964;42.606;23.588;2023-04-25T10:51:36;3.30;;;3.00;;
1925;SDS011;964;42.606;23.588;2023-04-25T10:54:03;3.73;;;3.33;;
1925;SDS011;964;42.606;23.588;2023-04-25T10:56:32;3.87;;;3.60;;
1925;SDS011;964;42.606;23.588;2023-04-25T10:59:04;8.40;;;3.73;;
1925;SDS011;964;42.606;23.588;2023-04-25T11:01:37;3.10;;;2.80;;
1925;SDS011;964;42.606;23.588;2023-04-25T11:04:05;3.10;;;2.90;;
1925;SDS011;964;42.606;23.588;2023-04-25T11:09:38;2.73;;;2.53;;
1925;SDS011;964;42.606;23.588;2023-04-25T11:12:07;3.23;;;2.90;;
1925;SDS011;964;42.606;23.588;2023-04-25T11:14:36;4.40;;;1.87;;
1925;SDS011;964;42.606;23.588;2023-04-25T11:17:04;3.23;;;1.73;;
1925;SDS011;964;42.606;23.588;2023-04-25T11:19:31;2.40;;;2.20;;
1925;SDS011;964;42.606;23.588;2023-04-25T11:21:59;2.40;;;1.23;;
1925;SDS011;964;42.606;23.588;2023-04-25T11:24:28;1.80;;;1.63;;
1925;SDS011;964;42.606;23.588;2023-04-25T11:26:56;1.87;;;1.60;;
1925;SDS011;964;42.606;23.588;2023-04-25T11:29:24;2.20;;;1.50;;
1925;SDS011;964;42.606;23.588;2023-04-25T11:31:53;2.33;;;1.10;;
1925;SDS011;964;42.606;23.588;2023-04-25T11:34:23;3.27;;;1.50;;
1925;SDS011;964;42.606;23.588;2023-04-25T11:36:50;1.33;;;1.10;;
1925;SDS011;964;42.606;23.588;2023-04-25T11:39:18;1.37;;;1.27;;
1925;SDS011;964;42.606;23.588;2023-04-25T11:41:45;1.50;;;1.20;;
1925;SDS011;964;42.606;23.588;2023-04-25T11:44:12;1.30;;;1.20;;
1925;SDS011;964;42.606;23.588;2023-04-25T11:46:41;1.80;;;1.60;;
1925;SDS011;964;42.606;23.588;2023-04-25T11:49:08;1.60;;;1.10;;
1925;SDS011;964;42.606;23.588;2023-04-25T11:51:40;1.27;;;1.10;;
1925;SDS011;964;42.606;23.588;2023-04-25T11:54:08;2.30;;;1.47;;
1925;SDS011;964;42.606;23.588;2023-04-25T11:56:35;2.73;;;1.50;;
1925;SDS011;964;42.606;23.588;2023-04-25T11:59:02;1.53;;;1.43;;
1925;SDS011;964;42.606;23.588;2023-04-25T12:01:31;1.93;;;1.23;;
1925;SDS011;964;42.606;23.588;2023-04-25T12:03:59;1.37;;;1.27;;
1925;SDS011;964;42.606;23.588;2023-04-25T12:06:37;1.40;;;1.30;;
1925;SDS011;964;42.606;23.588;2023-04-25T12:09:07;1.50;;;1.40;;
1925;SDS011;964;42.606;23.588;2023-04-25T12:11:40;1.90;;;1.80;;
1925;SDS011;964;42.606;23.588;2023-04-25T12:14:07;1.93;;;1.57;;
1925;SDS011;964;42.606;23.588;2023-04-25T12:16:39;1.60;;;1.50;;
1925;SDS011;964;42.606;23.588;2023-04-25T12:19:07;3.60;;;1.33;;
1925;SDS011;964;42.606;23.588;2023-04-25T12:21:34;2.57;;;2.37;;
1925;SDS011;964;42.606;23.588;2023-04-25T12:24:13;2.93;;;2.47;;
1925;SDS011;964;42.606;23.588;2023-04-25T12:26:47;4.67;;;2.63;;
1925;SDS011;964;42.606;23.588;2023-04-25T12:29:18;3.00;;;2.10;;
1925;SDS011;964;42.606;23.588;2023-04-25T12:31:50;2.53;;;2.33;;
1925;SDS011;964;42.606;23.588;2023-04-25T12:34:18;2.93;;;2.30;;
1925;SDS011;964;42.606;23.588;2023-04-25T12:36:44;2.07;;;1.80;;
1925;SDS011;964;42.606;23.588;2023-04-25T12:39:16;2.43;;;2.23;;
1925;SDS011;964;42.606;23.588;2023-04-25T12:41:44;4.00;;;2.23;;
1925;SDS011;964;42.606;23.588;2023-04-25T12:44:11;5.77;;;2.53;;
1925;SDS011;964;42.606;23.588;2023-04-25T12:46:38;4.57;;;3.30;;
1925;SDS011;964;42.606;23.588;2023-04-25T12:49:06;3.23;;;2.93;;
1925;SDS011;964;42.606;23.588;2023-04-25T12:51:33;3.10;;;2.00;;
1925;SDS011;964;42.606;23.588;2023-04-25T12:54:00;1.90;;;1.80;;
1925;SDS011;964;42.606;23.588;2023-04-25T12:56:29;1.73;;;1.40;;
1925;SDS011;964;42.606;23.588;2023-04-25T12:58:56;3.27;;;1.43;;
1925;SDS011;964;42.606;23.588;2023-04-25T13:01:23;1.60;;;1.30;;
1925;SDS011;964;42.606;23.588;2023-04-25T13:03:49;1.80;;;1.70;;
1925;SDS011;964;42.606;23.588;2023-04-25T13:06:16;1.63;;;1.10;;
1925;SDS011;964;42.606;23.588;2023-04-25T13:08:44;3.60;;;2.60;;
1925;SDS011;964;42.606;23.588;2023-04-25T13:11:11;2.50;;;1.70;;
1925;SDS011;964;42.606;23.588;2023-04-25T13:13:39;1.23;;;1.13;;
1925;SDS011;964;42.606;23.588;2023-04-25T13:16:06;3.00;;;1.40;;
1925;SDS011;964;42.606;23.588;2023-04-25T13:18:33;1.93;;;1.20;;
1925;SDS011;964;42.606;23.588;2023-04-25T13:21:00;3.07;;;1.00;;
1925;SDS011;964;42.606;23.588;2023-04-25T13:23:27;1.50;;;1.17;;
1925;SDS011;964;42.606;23.588;2023-04-25T13:25:55;2.10;;;1.10;;
1925;SDS011;964;42.606;23.588;2023-04-25T13:28:23;1.50;;;1.20;;
1925;SDS011;964;42.606;23.588;2023-04-25T13:30:51;1.20;;;1.00;;
1925;SDS011;964;42.606;23.588;2023-04-25T13:33:19;1.23;;;1.13;;
1925;SDS011;964;42.606;23.588;2023-04-25T13:35:46;1.23;;;1.07;;
1925;SDS011;964;42.606;23.588;2023-04-25T13:38:19;4.10;;;0.90;;
1925;SDS011;964;42.606;23.588;2023-04-25T13:40:46;1.37;;;0.90;;
1925;SDS011;964;42.606;23.588;2023-04-25T13:43:13;2.03;;;1.10;;
1925;SDS011;964;42.606;23.588;2023-04-25T13:45:40;1.40;;;1.07;;
1925;SDS011;964;42.606;23.588;2023-04-25T13:48:08;3.13;;;1.00;;
1925;SDS011;964;42.606;23.588;2023-04-25T13:50:34;1.10;;;0.90;;
1925;SDS011;964;42.606;23.588;2023-04-25T13:53:01;2.60;;;0.90;;
1925;SDS011;964;42.606;23.588;2023-04-25T13:55:28;1.10;;;0.90;;
1925;SDS011;964;42.606;23.588;2023-04-25T13:57:55;1.17;;;0.80;;
1925;SDS011;964;42.606;23.588;2023-04-25T14:00:21;0.97;;;0.87;;
1925;SDS011;964;42.606;23.588;2023-04-25T14:02:48;1.90;;;1.20;;
1925;SDS011;964;42.606;23.588;2023-04-25T14:05:16;1.97;;;1.30;;
1925;SDS011;964;42.606;23.588;2023-04-25T14:07:43;1.77;;;1.40;;
1925;SDS011;964;42.606;23.588;2023-04-25T14:10:10;4.07;;;1.70;;
1925;SDS011;964;42.606;23.588;2023-04-25T14:12:37;3.30;;;1.30;;
1925;SDS011;964;42.606;23.588;2023-04-25T14:15:04;1.63;;;1.30;;
1925;SDS011;964;42.606;23.588;2023-04-25T14:17:31;2.97;;;1.40;;
1925;SDS011;964;42.606;23.588;2023-04-25T14:19:58;1.73;;;1.40;;
1925;SDS011;964;42.606;23.588;2023-04-25T14:22:26;1.50;;;1.40;;
1925;SDS011;964;42.606;23.588;2023-04-25T14:24:52;2.50;;;2.03;;
1925;SDS011;964;42.606;23.588;2023-04-25T14:27:19;3.53;;;1.90;;
1925;SDS011;964;42.606;23.588;2023-04-25T14:29:46;1.90;;;1.70;;
1925;SDS011;964;42.606;23.588;2023-04-25T14:32:13;2.03;;;1.83;;
1925;SDS011;964;42.606;23.588;2023-04-25T14:34:40;2.90;;;2.27;;
1925;SDS011;964;42.606;23.588;2023-04-25T14:37:07;1.60;;;1.50;;
1925;SDS011;964;42.606;23.588;2023-04-25T14:39:35;2.47;;;1.40;;
1925;SDS011;964;42.606;23.588;2023-04-25T14:42:02;3.93;;;1.50;;
1925;SDS011;964;42.606;23.588;2023-04-25T14:44:29;1.57;;;1.47;;
1925;SDS011;964;42.606;23.588;2023-04-25T14:46:56;1.87;;;1.60;;
1925;SDS011;964;42.606;23.588;2023-04-25T14:49:22;2.10;;;1.50;;
1925;SDS011;964;42.606;23.588;2023-04-25T14:51:49;2.17;;;1.57;;
1925;SDS011;964;42.606;23.588;2023-04-25T14:54:16;3.87;;;1.50;;
1925;SDS011;964;42.606;23.588;2023-04-25T14:56:44;1.20;;;1.10;;
1925;SDS011;964;42.606;23.588;2023-04-25T14:59:11;1.07;;;0.97;;
1925;SDS011;964;42.606;23.588;2023-04-25T15:01:37;4.30;;;1.17;;
1925;SDS011;964;42.606;23.588;2023-04-25T15:04:05;1.20;;;1.03;;
1925;SDS011;964;42.606;23.588;2023-04-25T15:06:32;1.17;;;1.03;;
1925;SDS011;964;42.606;23.588;2023-04-25T15:08:58;1.80;;;1.30;;
1925;SDS011;964;42.606;23.588;2023-04-25T15:11:25;1.87;;;1.07;;
1925;SDS011;964;42.606;23.588;2023-04-25T15:13:53;1.47;;;0.93;;
1925;SDS011;964;42.606;23.588;2023-04-25T15:16:20;1.40;;;1.03;;